createdAt,value
2019-03-28T00:00:10.090Z,86.30
2019-03-28T00:01:10.081Z,85.93
2019-03-28T00:02:10.077Z,86.30
2019-03-28T00:03:10.067Z,86.30
2019-03-28T00:04:10.063Z,86.88
2019-03-28T00:05:10.058Z,86.98
2019-03-28T00:06:10.047Z,86.78
2019-03-28T00:07:10.040Z,86.98
2019-03-28T00:08:12.489Z,86.69
2019-03-28T00:09:10.025Z,87.35
2019-03-28T00:10:10.126Z,87.26
2019-03-28T00:11:10.010Z,87.16
2019-03-28T00:12:09.999Z,87.07
2019-03-28T00:13:09.993Z,87.07
2019-03-28T00:14:09.986Z,87.07
2019-03-28T00:15:09.979Z,86.98
2019-03-28T00:16:09.976Z,86.78
2019-03-28T00:17:09.970Z,86.98
2019-03-28T00:18:09.963Z,86.88
2019-03-28T00:19:09.952Z,86.88
2019-03-28T00:20:10.149Z,87.74
2019-03-28T00:21:09.934Z,87.83
2019-03-28T00:22:09.924Z,87.64
2019-03-28T00:23:09.916Z,87.07
2019-03-28T00:24:09.913Z,87.45
2019-03-28T00:25:09.908Z,87.74
2019-03-28T00:26:09.895Z,87.64
2019-03-28T00:27:09.886Z,86.78
2019-03-28T00:28:09.884Z,87.83
2019-03-28T00:29:09.878Z,87.83
2019-03-28T00:30:09.872Z,87.83
2019-03-28T00:31:09.863Z,87.54
2019-03-28T00:32:09.852Z,87.54
2019-03-28T00:33:09.844Z,87.64
2019-03-28T00:34:10.235Z,87.64
2019-03-28T00:35:09.830Z,87.83
2019-03-28T00:36:09.826Z,87.74
2019-03-28T00:37:09.819Z,87.64
2019-03-28T00:38:09.811Z,87.54
2019-03-28T00:39:09.801Z,87.64
2019-03-28T00:40:09.790Z,87.93
2019-03-28T00:41:09.782Z,87.64
2019-03-28T00:42:10.266Z,87.64
2019-03-28T00:43:09.771Z,87.26
2019-03-28T00:44:09.760Z,87.64
2019-03-28T00:45:09.751Z,87.69
2019-03-28T00:46:09.747Z,87.60
2019-03-28T00:47:09.738Z,87.26
2019-03-28T00:48:09.738Z,87.64
2019-03-28T00:49:09.729Z,87.74
2019-03-28T00:50:09.721Z,87.60
2019-03-28T00:51:09.711Z,87.50
2019-03-28T00:52:09.700Z,87.54
2019-03-28T00:53:09.691Z,87.93
2019-03-28T00:54:09.686Z,88.78
2019-03-28T00:55:09.682Z,88.74
2019-03-28T00:56:09.676Z,87.98
2019-03-28T00:57:09.668Z,88.07
2019-03-28T00:58:09.657Z,87.69
2019-03-28T00:59:09.647Z,87.21
2019-03-28T01:00:09.647Z,87.69
2019-03-28T01:01:09.639Z,87.88
2019-03-28T01:02:09.628Z,87.69
2019-03-28T01:03:09.620Z,87.88
2019-03-28T01:04:09.606Z,87.79
2019-03-28T01:05:09.601Z,87.60
2019-03-28T01:06:09.593Z,87.88
2019-03-28T01:07:09.585Z,87.69
2019-03-28T01:08:09.581Z,87.69
2019-03-28T01:09:09.574Z,88.17
2019-03-28T01:10:09.570Z,88.17
2019-03-28T01:11:09.561Z,87.60
2019-03-28T01:12:09.552Z,88.07
2019-03-28T01:13:09.542Z,87.88
2019-03-28T01:14:09.539Z,88.84
2019-03-28T01:15:09.531Z,88.55
2019-03-28T01:16:09.520Z,88.26
2019-03-28T01:17:09.510Z,89.12
2019-03-28T01:18:09.500Z,88.64
2019-03-28T01:19:09.700Z,88.84
2019-03-28T01:20:09.489Z,88.93
2019-03-28T01:21:09.481Z,89.03
2019-03-28T01:22:09.474Z,88.93
2019-03-28T01:23:09.465Z,89.03
2019-03-28T01:24:09.453Z,88.93
2019-03-28T01:25:09.446Z,89.60
2019-03-28T01:26:09.442Z,89.40
2019-03-28T01:27:09.435Z,89.40
2019-03-28T01:28:09.430Z,89.03
2019-03-28T01:29:09.422Z,88.93
2019-03-28T01:30:09.411Z,89.50
2019-03-28T01:31:10.244Z,89.60
2019-03-28T01:32:09.398Z,89.60
2019-03-28T01:33:09.391Z,89.50
2019-03-28T01:34:09.383Z,89.50
2019-03-28T01:35:09.372Z,89.69
2019-03-28T01:36:09.361Z,89.69
2019-03-28T01:37:09.353Z,89.89
2019-03-28T01:38:09.346Z,89.69
2019-03-28T01:39:10.154Z,89.69
2019-03-28T01:40:09.333Z,89.50
2019-03-28T01:41:09.327Z,89.40
2019-03-28T01:42:09.321Z,89.50
2019-03-28T01:43:09.313Z,89.03
2019-03-28T01:44:09.302Z,90.17
2019-03-28T01:45:09.296Z,89.89
2019-03-28T01:46:09.291Z,90.17
2019-03-28T01:47:09.281Z,89.60
2019-03-28T01:48:09.272Z,90.26
2019-03-28T01:49:09.263Z,89.50
2019-03-28T01:50:09.253Z,90.26
2019-03-28T01:51:09.245Z,89.89
2019-03-28T01:52:09.241Z,90.08
2019-03-28T01:53:09.234Z,90.45
2019-03-28T01:54:09.234Z,90.08
2019-03-28T01:55:09.219Z,90.17
2019-03-28T01:56:09.210Z,90.08
2019-03-28T01:57:11.294Z,89.98
2019-03-28T01:58:09.190Z,90.08
2019-03-28T01:59:09.182Z,90.55
2019-03-28T02:00:09.178Z,90.26
2019-03-28T02:01:09.175Z,90.45
2019-03-28T02:02:09.160Z,89.98
2019-03-28T02:03:09.152Z,90.31
2019-03-28T02:04:09.147Z,90.45
2019-03-28T02:05:09.140Z,90.55
2019-03-28T02:06:09.262Z,90.50
2019-03-28T02:07:09.128Z,90.50
2019-03-28T02:08:09.113Z,90.50
2019-03-28T02:09:09.107Z,90.60
2019-03-28T02:10:09.099Z,90.60
2019-03-28T02:11:09.091Z,90.79
2019-03-28T02:12:09.122Z,90.70
2019-03-28T02:13:09.081Z,90.98
2019-03-28T02:14:09.070Z,90.79
2019-03-28T02:15:09.061Z,90.60
2019-03-28T02:16:09.048Z,90.70
2019-03-28T02:17:09.040Z,90.60
2019-03-28T02:18:09.041Z,90.60
2019-03-28T02:19:09.028Z,90.79
2019-03-28T02:20:09.016Z,91.08
2019-03-28T02:21:09.690Z,90.31
2019-03-28T02:22:09.007Z,90.79
2019-03-28T02:23:08.995Z,90.41
2019-03-28T02:24:08.991Z,90.60
2019-03-28T02:25:08.984Z,91.46
2019-03-28T02:26:09.169Z,90.98
2019-03-28T02:27:08.968Z,91.27
2019-03-28T02:28:08.956Z,91.55
2019-03-28T02:29:08.949Z,91.60
2019-03-28T02:30:08.939Z,91.27
2019-03-28T02:31:08.936Z,91.84
2019-03-28T02:32:08.950Z,91.27
2019-03-28T02:33:08.919Z,91.13
2019-03-28T02:34:08.973Z,91.31
2019-03-28T02:35:08.899Z,91.41
2019-03-28T02:36:08.928Z,91.13
2019-03-28T02:37:08.888Z,91.31
2019-03-28T02:38:08.886Z,91.13
2019-03-28T02:39:08.880Z,91.03
2019-03-28T02:40:08.873Z,90.89
2019-03-28T02:41:09.007Z,91.22
2019-03-28T02:42:08.855Z,90.84
2019-03-28T02:43:08.839Z,91.03
2019-03-28T02:44:08.835Z,91.60
2019-03-28T02:45:08.827Z,91.31
2019-03-28T02:46:08.820Z,91.31
2019-03-28T02:47:08.815Z,91.03
2019-03-28T02:48:08.804Z,91.60
2019-03-28T02:49:08.795Z,91.60
2019-03-28T02:50:08.787Z,91.41
2019-03-28T02:51:08.776Z,91.69
2019-03-28T02:52:08.767Z,91.13
2019-03-28T02:53:08.764Z,91.31
2019-03-28T02:54:08.751Z,91.46
2019-03-28T02:55:08.743Z,91.13
2019-03-28T02:56:08.738Z,91.22
2019-03-28T02:57:08.737Z,91.69
2019-03-28T02:58:08.723Z,91.60
2019-03-28T02:59:08.722Z,91.69
2019-03-28T03:00:08.708Z,91.88
2019-03-28T03:01:08.697Z,91.60
2019-03-28T03:02:08.701Z,91.88
2019-03-28T03:03:08.692Z,91.41
2019-03-28T03:04:08.674Z,91.60
2019-03-28T03:05:08.666Z,91.69
2019-03-28T03:06:08.663Z,91.88
2019-03-28T03:07:08.644Z,91.60
2019-03-28T03:08:08.654Z,91.31
2019-03-28T03:09:08.635Z,91.41
2019-03-28T03:10:08.629Z,91.79
2019-03-28T03:11:09.547Z,91.41
2019-03-28T03:12:08.609Z,91.13
2019-03-28T03:13:08.606Z,91.60
2019-03-28T03:14:08.600Z,91.60
2019-03-28T03:15:08.587Z,91.88
2019-03-28T03:16:08.582Z,91.22
2019-03-28T03:17:08.577Z,91.22
2019-03-28T03:18:08.564Z,91.13
2019-03-28T03:19:08.555Z,91.31
2019-03-28T03:20:08.545Z,91.60
2019-03-28T03:21:09.872Z,91.31
2019-03-28T03:22:08.533Z,91.60
2019-03-28T03:23:08.531Z,91.22
2019-03-28T03:24:08.518Z,91.31
2019-03-28T03:25:08.515Z,91.13
2019-03-28T03:26:08.504Z,91.50
2019-03-28T03:27:08.491Z,91.88
2019-03-28T03:28:08.488Z,91.88
2019-03-28T03:29:08.486Z,91.31
2019-03-28T03:30:08.511Z,91.31
2019-03-28T03:31:08.479Z,91.31
2019-03-28T03:32:08.474Z,91.88
2019-03-28T03:33:09.036Z,91.50
2019-03-28T03:34:08.447Z,91.22
2019-03-28T03:35:08.441Z,91.88
2019-03-28T03:36:08.422Z,91.88
2019-03-28T03:37:08.415Z,91.69
2019-03-28T03:38:08.402Z,91.60
2019-03-28T03:39:08.398Z,91.60
2019-03-28T03:40:08.394Z,91.79
2019-03-28T03:41:08.389Z,91.88
2019-03-28T03:42:08.378Z,91.98
2019-03-28T03:43:08.376Z,91.88
2019-03-28T03:44:08.374Z,91.88
2019-03-28T03:45:09.332Z,91.88
2019-03-28T03:46:08.352Z,91.79
2019-03-28T03:47:08.333Z,92.08
2019-03-28T03:48:08.332Z,91.98
2019-03-28T03:49:08.323Z,91.60
2019-03-28T03:50:08.313Z,91.79
2019-03-28T03:51:08.305Z,92.27
2019-03-28T03:52:08.294Z,92.36
2019-03-28T03:53:08.286Z,92.36
2019-03-28T03:54:08.286Z,92.36
2019-03-28T03:55:08.274Z,92.36
2019-03-28T03:56:08.261Z,92.46
2019-03-28T03:57:08.256Z,92.08
2019-03-28T03:58:16.146Z,91.79
2019-03-28T03:59:08.240Z,92.36
2019-03-28T04:00:08.235Z,91.79
2019-03-28T04:01:08.227Z,91.98
2019-03-28T04:02:08.221Z,91.79
2019-03-28T04:03:08.214Z,92.55
2019-03-28T04:04:08.199Z,92.55
2019-03-28T04:05:08.190Z,91.69
2019-03-28T04:06:08.186Z,92.27
2019-03-28T04:07:08.177Z,92.36
2019-03-28T04:08:08.175Z,92.36
2019-03-28T04:09:08.166Z,92.17
2019-03-28T04:10:08.155Z,92.36
2019-03-28T04:11:08.146Z,92.27
2019-03-28T04:12:08.149Z,92.08
2019-03-28T04:13:08.135Z,92.08
2019-03-28T04:14:08.130Z,92.27
2019-03-28T04:15:08.116Z,92.36
2019-03-28T04:16:08.104Z,92.36
2019-03-28T04:17:08.099Z,92.46
2019-03-28T04:18:08.093Z,92.08
2019-03-28T04:19:08.080Z,92.17
2019-03-28T04:20:08.075Z,92.17
2019-03-28T04:21:08.071Z,91.88
2019-03-28T04:22:08.237Z,92.27
2019-03-28T04:23:08.058Z,92.27
2019-03-28T04:24:08.044Z,92.46
2019-03-28T04:25:08.040Z,92.36
2019-03-28T04:26:08.042Z,92.46
2019-03-28T04:27:08.026Z,91.98
2019-03-28T04:28:08.013Z,92.08
2019-03-28T04:29:08.012Z,92.08
2019-03-28T04:30:07.995Z,92.17
2019-03-28T04:31:07.986Z,92.08
2019-03-28T04:32:07.984Z,92.36
2019-03-28T04:33:07.976Z,92.27
2019-03-28T04:34:09.524Z,92.46
2019-03-28T04:35:07.959Z,92.32
2019-03-28T04:36:07.947Z,92.27
2019-03-28T04:37:07.941Z,92.36
2019-03-28T04:38:07.936Z,92.08
2019-03-28T04:39:07.933Z,92.46
2019-03-28T04:40:08.659Z,92.32
2019-03-28T04:41:07.918Z,92.22
2019-03-28T04:42:07.901Z,92.13
2019-03-28T04:43:07.895Z,92.03
2019-03-28T04:44:07.891Z,92.55
2019-03-28T04:45:07.902Z,91.84
2019-03-28T04:46:07.872Z,92.55
2019-03-28T04:47:07.863Z,92.27
2019-03-28T04:48:07.854Z,92.55
2019-03-28T04:49:07.844Z,92.93
2019-03-28T04:50:07.842Z,92.55
2019-03-28T04:51:07.827Z,92.74
2019-03-28T04:52:07.825Z,92.46
2019-03-28T04:53:07.816Z,92.46
2019-03-28T04:54:09.886Z,92.08
2019-03-28T04:55:07.808Z,92.27
2019-03-28T04:56:07.791Z,92.36
2019-03-28T04:57:07.784Z,92.46
2019-03-28T04:58:07.779Z,92.17
2019-03-28T04:59:07.780Z,92.50
2019-03-28T05:00:07.758Z,92.55
2019-03-28T05:01:07.751Z,92.55
2019-03-28T05:02:07.741Z,92.84
2019-03-28T05:03:07.740Z,92.65
2019-03-28T05:04:07.732Z,92.36
2019-03-28T05:05:07.728Z,92.46
2019-03-28T05:06:07.722Z,92.74
2019-03-28T05:07:07.708Z,92.46
2019-03-28T05:08:08.366Z,92.84
2019-03-28T05:09:07.689Z,92.84
2019-03-28T05:10:07.678Z,92.17
2019-03-28T05:11:07.669Z,92.03
2019-03-28T05:12:07.666Z,92.93
2019-03-28T05:13:07.657Z,92.55
2019-03-28T05:14:07.646Z,92.46
2019-03-28T05:15:07.637Z,92.36
2019-03-28T05:16:07.633Z,92.55
2019-03-28T05:17:07.627Z,93.12
2019-03-28T05:18:07.621Z,92.41
2019-03-28T05:19:07.611Z,93.51
2019-03-28T05:20:07.599Z,93.08
2019-03-28T05:21:07.591Z,92.60
2019-03-28T05:22:07.595Z,92.60
2019-03-28T05:23:07.576Z,92.41
2019-03-28T05:24:07.573Z,93.08
2019-03-28T05:25:07.564Z,92.98
2019-03-28T05:26:07.554Z,92.98
2019-03-28T05:27:07.575Z,93.27
2019-03-28T05:28:07.533Z,93.17
2019-03-28T05:29:07.527Z,92.79
2019-03-28T05:30:07.522Z,92.89
2019-03-28T05:31:08.351Z,92.98
2019-03-28T05:32:07.502Z,92.79
2019-03-28T05:33:07.494Z,93.93
2019-03-28T05:34:08.357Z,92.98
2019-03-28T05:35:07.481Z,93.17
2019-03-28T05:36:07.476Z,93.27
2019-03-28T05:37:07.470Z,92.98
2019-03-28T05:38:07.462Z,93.08
2019-03-28T05:39:07.453Z,93.55
2019-03-28T05:40:07.450Z,93.65
2019-03-28T05:41:07.434Z,93.84
2019-03-28T05:42:07.424Z,93.65
2019-03-28T05:43:07.414Z,93.84
2019-03-28T05:44:07.411Z,92.79
2019-03-28T05:45:07.406Z,93.08
2019-03-28T05:46:07.392Z,93.98
2019-03-28T05:47:07.383Z,93.51
2019-03-28T05:48:07.381Z,93.41
2019-03-28T05:49:07.371Z,93.12
2019-03-28T05:50:07.366Z,93.70
2019-03-28T05:51:07.358Z,92.84
2019-03-28T05:52:07.346Z,93.03
2019-03-28T05:53:07.345Z,92.93
2019-03-28T05:54:07.333Z,93.03
2019-03-28T05:55:07.326Z,93.03
2019-03-28T05:56:07.318Z,93.03
2019-03-28T05:57:07.311Z,93.03
2019-03-28T05:58:09.578Z,92.93
2019-03-28T05:59:11.100Z,92.74
2019-03-28T06:00:07.281Z,92.17
2019-03-28T06:01:07.273Z,91.98
2019-03-28T06:02:07.271Z,92.13
2019-03-28T06:03:07.262Z,92.13
2019-03-28T06:04:07.250Z,92.13
2019-03-28T06:05:07.242Z,92.22
2019-03-28T06:06:07.238Z,92.22
2019-03-28T06:07:08.775Z,92.60
2019-03-28T06:08:07.227Z,92.60
2019-03-28T06:09:07.217Z,93.27
2019-03-28T06:10:07.210Z,92.98
2019-03-28T06:11:07.201Z,93.93
2019-03-28T06:12:07.187Z,93.93
2019-03-28T06:13:07.181Z,93.74
2019-03-28T06:14:07.177Z,93.55
2019-03-28T06:15:07.167Z,93.51
2019-03-28T06:16:07.165Z,93.74
2019-03-28T06:17:07.158Z,93.41
2019-03-28T06:18:07.147Z,93.22
2019-03-28T06:19:07.136Z,93.12
2019-03-28T06:20:07.133Z,93.22
2019-03-28T06:21:07.124Z,93.79
2019-03-28T06:22:07.119Z,93.70
2019-03-28T06:23:07.109Z,92.84
2019-03-28T06:24:07.095Z,93.60
2019-03-28T06:25:07.087Z,93.41
2019-03-28T06:26:07.080Z,93.22
2019-03-28T06:27:07.573Z,93.51
2019-03-28T06:28:07.069Z,93.51
2019-03-28T06:29:08.568Z,93.51
2019-03-28T06:30:07.056Z,93.60
2019-03-28T06:31:07.048Z,93.70
2019-03-28T06:32:07.036Z,93.60
2019-03-28T06:33:07.032Z,93.79
2019-03-28T06:34:07.025Z,93.88
2019-03-28T06:35:07.017Z,93.79
2019-03-28T06:36:07.005Z,93.60
2019-03-28T06:37:06.996Z,93.79
2019-03-28T06:38:06.986Z,92.93
2019-03-28T06:39:06.978Z,93.32
2019-03-28T06:40:06.977Z,93.12
2019-03-28T06:41:06.967Z,92.08
2019-03-28T06:42:06.961Z,92.17
2019-03-28T06:43:06.951Z,92.17
2019-03-28T06:44:06.941Z,91.79
2019-03-28T06:45:06.933Z,91.88
2019-03-28T06:46:06.927Z,92.27
2019-03-28T06:47:06.920Z,92.50
2019-03-28T06:48:06.917Z,92.50
2019-03-28T06:49:06.908Z,91.79
2019-03-28T06:50:06.899Z,91.50
2019-03-28T06:51:06.888Z,91.13
2019-03-28T06:52:06.887Z,91.31
2019-03-28T06:53:06.878Z,91.03
2019-03-28T06:54:06.869Z,91.46
2019-03-28T06:55:06.861Z,91.69
2019-03-28T06:56:06.848Z,91.88
2019-03-28T06:57:06.842Z,91.55
2019-03-28T06:58:06.835Z,91.98
2019-03-28T06:59:06.826Z,91.88
2019-03-28T07:00:06.906Z,91.84
2019-03-28T07:01:06.817Z,91.88
2019-03-28T07:02:06.811Z,91.74
2019-03-28T07:03:06.802Z,91.74
2019-03-28T07:04:06.791Z,91.69
2019-03-28T07:05:06.784Z,91.60
2019-03-28T07:06:06.783Z,91.22
2019-03-28T07:07:06.867Z,91.03
2019-03-28T07:08:06.763Z,91.41
2019-03-28T07:09:06.755Z,90.84
2019-03-28T07:10:06.747Z,90.64
2019-03-28T07:11:06.736Z,90.84
2019-03-28T07:12:06.733Z,90.93
2019-03-28T07:13:06.727Z,90.64
2019-03-28T07:14:06.715Z,90.45
2019-03-28T07:15:06.708Z,91.41
2019-03-28T07:16:06.707Z,91.41
2019-03-28T07:17:06.706Z,90.64
2019-03-28T07:18:06.699Z,90.45
2019-03-28T07:19:06.684Z,90.64
2019-03-28T07:20:09.073Z,90.79
2019-03-28T07:21:06.667Z,90.31
2019-03-28T07:22:06.664Z,90.41
2019-03-28T07:23:06.658Z,89.93
2019-03-28T07:24:06.717Z,89.74
2019-03-28T07:25:06.639Z,89.54
2019-03-28T07:26:06.629Z,89.07
2019-03-28T07:27:06.620Z,89.26
2019-03-28T07:28:06.747Z,88.98
2019-03-28T07:29:06.612Z,88.88
2019-03-28T07:30:06.606Z,88.69
2019-03-28T07:31:06.599Z,89.17
2019-03-28T07:32:06.589Z,89.54
2019-03-28T07:33:06.581Z,89.07
2019-03-28T07:34:06.576Z,89.45
2019-03-28T07:35:06.569Z,88.59
2019-03-28T07:36:06.569Z,88.40
2019-03-28T07:37:06.560Z,88.16
2019-03-28T07:38:06.550Z,88.07
2019-03-28T07:39:06.541Z,87.68
2019-03-28T07:40:06.542Z,87.78
2019-03-28T07:41:06.538Z,87.11
2019-03-28T07:42:06.524Z,87.30
2019-03-28T07:43:06.516Z,87.11
2019-03-28T07:44:06.505Z,87.49
2019-03-28T07:45:06.500Z,87.21
2019-03-28T07:46:06.492Z,87.49
2019-03-28T07:47:06.484Z,86.92
2019-03-28T07:48:06.483Z,87.21
2019-03-28T07:49:06.478Z,87.02
2019-03-28T07:50:06.472Z,86.82
2019-03-28T07:51:06.466Z,87.02
2019-03-28T07:52:06.455Z,87.11
2019-03-28T07:53:06.449Z,86.54
2019-03-28T07:54:06.448Z,86.63
2019-03-28T07:55:06.439Z,86.35
2019-03-28T07:56:06.429Z,86.30
2019-03-28T07:57:06.422Z,86.58
2019-03-28T07:58:07.657Z,86.01
2019-03-28T07:59:06.409Z,86.30
2019-03-28T08:00:06.407Z,85.72
2019-03-28T08:01:06.400Z,85.53
2019-03-28T08:02:06.392Z,85.72
2019-03-28T08:03:06.386Z,85.53
2019-03-28T08:04:06.376Z,84.67
2019-03-28T08:05:06.370Z,84.48
2019-03-28T08:06:06.365Z,84.72
2019-03-28T08:07:06.361Z,83.95
2019-03-28T08:08:06.359Z,84.23
2019-03-28T08:09:06.350Z,84.81
2019-03-28T08:10:06.343Z,83.67
2019-03-28T08:11:06.335Z,83.76
2019-03-28T08:12:06.335Z,83.95
2019-03-28T08:13:06.329Z,84.33
2019-03-28T08:14:06.321Z,83.95
2019-03-28T08:15:06.312Z,83.57
2019-03-28T08:16:06.302Z,82.81
2019-03-28T08:17:06.296Z,82.81
2019-03-28T08:18:06.292Z,83.18
2019-03-28T08:19:07.992Z,83.57
2019-03-28T08:20:06.284Z,83.38
2019-03-28T08:21:06.279Z,83.09
2019-03-28T08:22:06.272Z,84.14
2019-03-28T08:23:06.264Z,83.67
2019-03-28T08:24:06.260Z,83.57
2019-03-28T08:25:10.916Z,83.86
2019-03-28T08:26:06.248Z,82.81
2019-03-28T08:27:06.242Z,83.09
2019-03-28T08:28:06.232Z,83.47
2019-03-28T08:29:06.228Z,83.70
2019-03-28T08:30:17.651Z,83.51
2019-03-28T08:31:06.217Z,83.99
2019-03-28T08:32:06.217Z,83.33
2019-03-28T08:33:06.211Z,83.51
2019-03-28T08:34:06.208Z,83.61
2019-03-28T08:35:06.199Z,83.13
2019-03-28T08:36:06.192Z,81.89
2019-03-28T08:37:06.186Z,81.79
2019-03-28T08:38:09.580Z,82.03
2019-03-28T08:39:06.171Z,81.84
2019-03-28T08:40:06.169Z,81.93
2019-03-28T08:41:07.202Z,81.84
2019-03-28T08:42:06.155Z,82.12
2019-03-28T08:43:06.158Z,80.79
2019-03-28T08:44:07.407Z,81.74
2019-03-28T08:45:07.084Z,82.31
2019-03-28T08:46:08.761Z,81.74
2019-03-28T08:47:06.461Z,82.12
2019-03-28T08:48:06.124Z,82.60
2019-03-28T08:49:06.127Z,81.65
2019-03-28T08:50:06.115Z,81.74
2019-03-28T08:51:06.108Z,82.03
2019-03-28T08:52:06.108Z,82.12
2019-03-28T08:53:06.101Z,81.74
2019-03-28T08:54:06.096Z,82.31
2019-03-28T08:55:09.701Z,82.12
2019-03-28T08:56:06.082Z,81.74
2019-03-28T08:57:06.076Z,81.65
2019-03-28T08:58:06.075Z,81.16
2019-03-28T08:59:06.068Z,81.36
2019-03-28T09:00:06.058Z,81.07
2019-03-28T09:01:06.076Z,81.45
2019-03-28T09:02:06.049Z,81.36
2019-03-28T09:03:06.048Z,81.26
2019-03-28T09:04:06.045Z,81.74
2019-03-28T09:05:06.039Z,81.16
2019-03-28T09:06:06.032Z,80.69
2019-03-28T09:07:06.192Z,81.07
2019-03-28T09:08:06.018Z,80.30
2019-03-28T09:09:06.017Z,80.02
2019-03-28T09:10:06.004Z,80.30
2019-03-28T09:11:05.998Z,79.83
2019-03-28T09:12:05.999Z,80.40
2019-03-28T09:13:05.992Z,79.93
2019-03-28T09:14:05.983Z,79.93
2019-03-28T09:15:05.981Z,79.73
2019-03-28T09:16:05.980Z,79.25
2019-03-28T09:17:05.973Z,79.93
2019-03-28T09:18:05.969Z,79.83
2019-03-28T09:19:05.965Z,79.54
2019-03-28T09:20:05.955Z,79.54
2019-03-28T09:21:05.949Z,79.16
2019-03-28T09:22:05.942Z,79.29
2019-03-28T09:23:05.935Z,79.49
2019-03-28T09:24:05.942Z,78.63
2019-03-28T09:25:05.930Z,78.34
2019-03-28T09:26:05.928Z,78.05
2019-03-28T09:27:05.922Z,77.19
2019-03-28T09:28:05.913Z,76.90
2019-03-28T09:29:05.909Z,76.62
2019-03-28T09:30:05.908Z,76.81
2019-03-28T09:31:18.940Z,76.62
2019-03-28T09:32:05.894Z,77.19
2019-03-28T09:33:05.920Z,77.00
2019-03-28T09:34:05.881Z,77.38
2019-03-28T09:35:05.878Z,77.48
2019-03-28T09:36:05.886Z,77.86
2019-03-28T09:37:05.873Z,78.43
2019-03-28T09:38:05.867Z,78.57
2019-03-28T09:39:05.864Z,77.61
2019-03-28T09:40:05.857Z,77.19
2019-03-28T09:41:05.849Z,77.57
2019-03-28T09:42:05.849Z,77.95
2019-03-28T09:43:05.842Z,77.86
2019-03-28T09:44:05.842Z,77.80
2019-03-28T09:45:05.837Z,77.13
2019-03-28T09:46:05.832Z,76.56
2019-03-28T09:47:05.827Z,76.40
2019-03-28T09:48:05.823Z,76.31
2019-03-28T09:49:05.821Z,75.83
2019-03-28T09:50:05.815Z,74.91
2019-03-28T09:51:05.808Z,73.76
2019-03-28T09:52:05.804Z,73.57
2019-03-28T09:53:05.796Z,73.19
2019-03-28T09:54:05.791Z,72.45
2019-03-28T09:55:05.788Z,72.94
2019-03-28T09:56:05.790Z,72.27
2019-03-28T09:57:05.788Z,71.78
2019-03-28T09:58:05.786Z,71.34
2019-03-28T09:59:05.785Z,71.53
2019-03-28T10:00:05.777Z,71.44
2019-03-28T10:01:05.770Z,69.90
2019-03-28T10:02:05.774Z,69.62
2019-03-28T10:03:05.771Z,69.23
2019-03-28T10:04:06.608Z,69.74
2019-03-28T10:05:05.760Z,68.37
2019-03-28T10:06:05.755Z,68.14
2019-03-28T10:07:05.900Z,69.26
2019-03-28T10:08:05.753Z,69.54
2019-03-28T10:09:05.750Z,70.31
2019-03-28T10:10:08.982Z,70.44
2019-03-28T10:11:05.767Z,71.40
2019-03-28T10:12:05.741Z,71.50
2019-03-28T10:13:05.737Z,71.44
2019-03-28T10:14:05.738Z,71.15
2019-03-28T10:15:05.736Z,71.44
2019-03-28T10:16:05.738Z,72.24
2019-03-28T10:17:05.739Z,71.37
2019-03-28T10:18:05.733Z,70.03
2019-03-28T10:19:05.726Z,68.50
2019-03-28T10:20:05.873Z,67.96
2019-03-28T10:21:05.726Z,67.29
2019-03-28T10:22:05.723Z,67.70
2019-03-28T10:23:05.723Z,67.13
2019-03-28T10:24:05.713Z,66.52
2019-03-28T10:25:05.711Z,65.20
2019-03-28T10:26:06.563Z,65.20
2019-03-28T10:27:05.712Z,65.20
2019-03-28T10:28:05.713Z,65.46
2019-03-28T10:29:05.723Z,65.75
2019-03-28T10:30:05.714Z,66.19
2019-03-28T10:31:15.904Z,66.58
2019-03-28T10:32:06.498Z,66.77
2019-03-28T10:33:05.699Z,67.63
2019-03-28T10:34:05.703Z,67.09
2019-03-28T10:35:07.097Z,66.42
2019-03-28T10:36:05.697Z,66.80
2019-03-28T10:37:05.714Z,66.61
2019-03-28T10:38:05.696Z,66.80
2019-03-28T10:39:05.699Z,66.64
2019-03-28T10:40:05.697Z,65.78
2019-03-28T10:41:05.700Z,65.20
2019-03-28T10:42:05.695Z,64.98
2019-03-28T10:43:05.695Z,64.66
2019-03-28T10:44:05.690Z,65.39
2019-03-28T10:45:05.689Z,66.49
2019-03-28T10:46:05.686Z,66.39
2019-03-28T10:47:05.685Z,66.77
2019-03-28T10:48:05.689Z,66.49
2019-03-28T10:49:05.687Z,67.29
2019-03-28T10:50:05.682Z,67.19
2019-03-28T10:51:05.681Z,66.42
2019-03-28T10:52:05.685Z,66.93
2019-03-28T10:53:05.685Z,65.59
2019-03-28T10:54:18.955Z,64.53
2019-03-28T10:55:05.686Z,64.05
2019-03-28T10:56:05.684Z,63.41
2019-03-28T10:57:13.514Z,63.60
2019-03-28T10:58:17.835Z,63.25
2019-03-28T10:59:05.678Z,62.96
2019-03-28T11:00:05.686Z,62.00
2019-03-28T11:01:05.682Z,61.36
2019-03-28T11:02:05.678Z,61.36
2019-03-28T11:03:05.704Z,61.07
2019-03-28T11:04:05.683Z,61.04
2019-03-28T11:05:05.685Z,60.85
2019-03-28T11:06:06.520Z,60.53
2019-03-28T11:07:05.681Z,60.91
2019-03-28T11:08:05.672Z,61.20
2019-03-28T11:09:05.679Z,61.11
2019-03-28T11:10:05.676Z,61.78
2019-03-28T11:11:05.673Z,61.52
2019-03-28T11:12:05.678Z,61.74
2019-03-28T11:13:09.025Z,61.07
2019-03-28T11:14:05.681Z,61.19
2019-03-28T11:15:05.679Z,61.10
2019-03-28T11:16:05.675Z,59.94
2019-03-28T11:17:05.675Z,60.36
2019-03-28T11:18:05.672Z,59.59
2019-03-28T11:19:05.674Z,58.24
2019-03-28T11:20:05.678Z,56.90
2019-03-28T11:21:05.832Z,56.41
2019-03-28T11:22:05.675Z,57.54
2019-03-28T11:23:05.676Z,57.60
2019-03-28T11:24:05.680Z,58.57
2019-03-28T11:25:05.680Z,58.28
2019-03-28T11:26:05.683Z,58.28
2019-03-28T11:27:05.685Z,58.35
2019-03-28T11:28:05.684Z,58.28
2019-03-28T11:29:05.682Z,58.64
2019-03-28T11:30:05.683Z,59.44
2019-03-28T11:31:05.683Z,58.35
2019-03-28T11:32:05.689Z,58.83
2019-03-28T11:33:06.616Z,58.95
2019-03-28T11:34:05.687Z,58.57
2019-03-28T11:35:06.680Z,57.70
2019-03-28T11:36:05.682Z,57.51
2019-03-28T11:37:05.685Z,57.99
2019-03-28T11:38:05.691Z,57.60
2019-03-28T11:39:05.688Z,57.90
2019-03-28T11:40:09.020Z,57.13
2019-03-28T11:41:05.685Z,57.03
2019-03-28T11:42:05.690Z,56.48
2019-03-28T11:43:05.689Z,56.20
2019-03-28T11:44:05.698Z,55.30
2019-03-28T11:45:08.943Z,55.68
2019-03-28T11:46:05.695Z,55.98
2019-03-28T11:47:05.697Z,56.45
2019-03-28T11:48:05.693Z,56.65
2019-03-28T11:49:05.696Z,56.36
2019-03-28T11:50:05.691Z,55.98
2019-03-28T11:51:05.690Z,56.65
2019-03-28T11:52:05.696Z,56.71
2019-03-28T11:53:05.696Z,57.48
2019-03-28T11:54:05.693Z,57.97
2019-03-28T11:55:05.693Z,57.48
2019-03-28T11:56:05.699Z,57.65
2019-03-28T11:57:05.721Z,57.48
2019-03-28T11:58:05.702Z,57.87
2019-03-28T11:59:06.354Z,57.60
2019-03-28T12:00:05.698Z,57.90
2019-03-28T12:01:05.698Z,56.48
2019-03-28T12:02:18.999Z,56.10
2019-03-28T12:03:05.699Z,56.10
2019-03-28T12:04:05.704Z,55.62
2019-03-28T12:05:05.706Z,55.16
2019-03-28T12:06:05.702Z,55.33
2019-03-28T12:07:05.703Z,54.27
2019-03-28T12:08:05.700Z,54.30
2019-03-28T12:09:05.699Z,54.49
2019-03-28T12:10:05.705Z,53.91
2019-03-28T12:11:05.705Z,53.81
2019-03-28T12:12:05.701Z,53.02
2019-03-28T12:13:05.702Z,52.56
2019-03-28T12:14:05.713Z,52.54
2019-03-28T12:15:05.730Z,53.50
2019-03-28T12:16:05.710Z,53.78
2019-03-28T12:17:05.711Z,53.88
2019-03-28T12:18:05.711Z,54.17
2019-03-28T12:19:05.712Z,54.30
2019-03-28T12:20:05.706Z,54.97
2019-03-28T12:21:05.709Z,54.30
2019-03-28T12:22:05.705Z,54.10
2019-03-28T12:23:05.705Z,54.00
2019-03-28T12:24:05.738Z,53.55
2019-03-28T12:25:05.711Z,52.85
2019-03-28T12:26:05.709Z,52.40
2019-03-28T12:27:05.706Z,52.11
2019-03-28T12:28:05.713Z,52.01
2019-03-28T12:29:06.013Z,51.89
2019-03-28T12:30:05.715Z,52.37
2019-03-28T12:31:05.721Z,52.95
2019-03-28T12:32:13.900Z,53.17
2019-03-28T12:33:05.720Z,52.83
2019-03-28T12:34:05.712Z,53.59
2019-03-28T12:35:05.711Z,54.36
2019-03-28T12:36:05.717Z,54.27
2019-03-28T12:37:05.717Z,54.46
2019-03-28T12:38:05.719Z,54.05
2019-03-28T12:39:05.720Z,54.14
2019-03-28T12:40:05.715Z,53.59
2019-03-28T12:41:05.717Z,53.86
2019-03-28T12:42:05.721Z,53.86
2019-03-28T12:43:05.724Z,53.76
2019-03-28T12:44:05.718Z,54.43
2019-03-28T12:45:05.717Z,55.62
2019-03-28T12:46:05.715Z,55.13
2019-03-28T12:47:05.716Z,55.33
2019-03-28T12:48:05.720Z,55.52
2019-03-28T12:49:05.720Z,55.90
2019-03-28T12:50:05.720Z,55.13
2019-03-28T12:51:05.721Z,54.43
2019-03-28T12:52:05.715Z,54.57